»·PEaware :: N7GL KSAN-KLGB

N7GL :: KSAN-KLGB

FLIGHT INFORMATION

Flight Status: Arrived
Operator: Privately registered:
United States
More flights under this callsign
Pilot: Georg L. (13308)
Aircraft: BEECH AIRCRAFT SUPER KING AIR 350
(B350)
More flights by this aircraft type
Origin: KSAN San Diego Intl-Lindbergh
United States
Destination: KLGB Long Beach
United States
More flights between these airports :: More routes between these airports
Route: +CWARD2 SLI+
File this flight plan on PilotEdge
Remarks: TEC ROUTE SANP4
Altitude:
(Current/Filed)
8,000ft
Speed:
(Current/Filed)
280kts
Departed: 06-Dec-20 09:26 AM
Arrived: 06-Dec-20 09:50 AM
Distance/Time
Traveled:
81nm/0:24
Distance/Time
To Go:
Arrived

Flight Plot

Page will automatically refresh every two minutes.

Flight plan parsing failed; only flown route is shown


Map Options




Map Legend


Flown Route
Filed Route
Departure Airport
Arrival Airport
Navaid (VOR, NDB)
Fix

Horizontal Profiles

Position Reports

Time Latitude Longitude Heading Altitude Ground
Speed
06-Dec-20 08:54 32.733326 -117.178703 13 22ft 0kts
06-Dec-20 08:55 32.733326 -117.178703 13 22ft 0kts
06-Dec-20 08:56 32.733326 -117.178703 13 22ft 0kts
06-Dec-20 08:57 32.733326 -117.178703 13 22ft 0kts
06-Dec-20 08:58 32.733326 -117.178704 13 22ft 0kts
06-Dec-20 08:59 32.733326 -117.178703 13 22ft 0kts
06-Dec-20 09:00 32.733326 -117.178703 13 22ft 0kts
06-Dec-20 09:01 32.733326 -117.178703 13 22ft 0kts
06-Dec-20 09:02 32.733326 -117.178703 13 22ft 0kts
06-Dec-20 09:03 32.733326 -117.178703 13 22ft 0kts
06-Dec-20 09:04 32.733326 -117.178703 13 22ft 0kts
06-Dec-20 09:05 32.733326 -117.178703 13 22ft 0kts
06-Dec-20 09:06 32.733326 -117.178703 13 22ft 0kts
06-Dec-20 09:07 32.733326 -117.178703 13 22ft 0kts
06-Dec-20 09:08 32.733326 -117.178703 13 22ft 0kts
06-Dec-20 09:09 32.733326 -117.178703 13 22ft 0kts
06-Dec-20 09:10 32.733326 -117.178703 13 22ft 0kts
06-Dec-20 09:11 32.733326 -117.178703 13 22ft 0kts
06-Dec-20 09:12 32.733326 -117.178703 13 22ft 0kts
06-Dec-20 09:13 32.733326 -117.178704 12 22ft 0kts
06-Dec-20 09:14 32.733326 -117.178703 13 22ft 0kts
06-Dec-20 09:15 32.733326 -117.178703 13 22ft 0kts
06-Dec-20 09:16 32.733326 -117.178703 13 22ft 0kts
06-Dec-20 09:17 32.733326 -117.178703 13 22ft 0kts
06-Dec-20 09:18 32.733326 -117.178703 13 22ft 0kts
06-Dec-20 09:19 32.733326 -117.178703 13 22ft 0kts
06-Dec-20 09:20 32.733708 -117.179095 278 22ft 3kts
06-Dec-20 09:21 32.732662 -117.179770 195 22ft 12kts
06-Dec-20 09:22 32.731152 -117.175610 141 22ft 0kts
06-Dec-20 09:23 32.731152 -117.175610 141 22ft 0kts
06-Dec-20 09:24 32.730861 -117.175385 154 22ft 8kts
06-Dec-20 09:25 32.735393 -117.198222 283 608ft 148kts
06-Dec-20 09:26 32.758695 -117.242693 312 2707ft 172kts
06-Dec-20 09:27 32.786117 -117.292164 301 4872ft 182kts
06-Dec-20 09:28 32.814911 -117.342173 309 7003ft 186kts
06-Dec-20 09:29 32.848829 -117.394601 309 8037ft 237kts
06-Dec-20 09:30 32.893202 -117.463175 308 8142ft 274kts
06-Dec-20 09:31 32.940794 -117.537261 308 8064ft 280kts
06-Dec-20 09:32 32.987690 -117.610393 308 8069ft 276kts
06-Dec-20 09:33 33.033993 -117.682726 308 8071ft 274kts
06-Dec-20 09:34 33.084404 -117.750553 320 8075ft 273kts
06-Dec-20 09:35 33.142344 -117.809181 320 8078ft 273kts
06-Dec-20 09:36 33.202952 -117.863106 341 8075ft 267kts
06-Dec-20 09:37 33.273385 -117.881605 349 8074ft 255kts
06-Dec-20 09:38 33.340207 -117.898083 349 7453ft 243kts
06-Dec-20 09:39 33.405708 -117.916934 344 5960ft 242kts
06-Dec-20 09:40 33.470021 -117.940151 344 4465ft 241kts
06-Dec-20 09:41 33.534939 -117.942945 2 3272ft 227kts
06-Dec-20 09:42 33.590843 -117.918917 20 3008ft 210kts
06-Dec-20 09:43 33.643143 -117.941104 316 3015ft 216kts
06-Dec-20 09:44 33.685007 -117.990923 315 2988ft 197kts
06-Dec-20 09:45 33.719458 -118.032536 316 2677ft 163kts
06-Dec-20 09:46 33.750375 -118.069962 315 1727ft 152kts
06-Dec-20 09:47 33.776891 -118.101756 315 1117ft 140kts
06-Dec-20 09:48 33.799350 -118.129125 316 398ft 117kts
06-Dec-20 09:49 33.817296 -118.150786 316 65ft 35kts
06-Dec-20 09:50 33.818507 -118.153794 264 65ft 0kts
06-Dec-20 09:51 33.818509 -118.155659 254 65ft 14kts
06-Dec-20 09:52 33.819057 -118.157308 57 65ft 1kts
06-Dec-20 09:53 33.816552 -118.157946 297 65ft 7kts
06-Dec-20 09:54 33.816770 -118.157915 85 65ft 0kts
06-Dec-20 09:55 33.816770 -118.157915 85 65ft 0kts
06-Dec-20 09:56 33.816770 -118.157915 85 65ft 0kts
06-Dec-20 09:57 33.816770 -118.157915 85 65ft 0kts
06-Dec-20 09:58 33.816770 -118.157915 85 65ft 0kts
06-Dec-20 09:59 33.816770 -118.157915 85 65ft 0kts
06-Dec-20 10:00 33.816770 -118.157915 85 65ft 0kts
06-Dec-20 10:01 33.816770 -118.157915 85 65ft 0kts
06-Dec-20 10:02 33.816770 -118.157915 85 65ft 0kts
06-Dec-20 10:03 33.816770 -118.157915 85 65ft 0kts

Navigation Log

Ident Type
Flight plan parsing failed, navigation log unavailable